createdAt,value
2022-12-31T00:55:01.527Z,100275.84
2022-12-31T00:57:28.081Z,100281.88
2022-12-31T00:59:56.610Z,100286.38
2022-12-31T01:02:23.219Z,100279.47
2022-12-31T01:04:49.949Z,100276.88
2022-12-31T01:07:22.415Z,100277.81
2022-12-31T01:09:48.972Z,100283.03
2022-12-31T01:12:16.079Z,100274.34
2022-12-31T01:14:42.780Z,100286.47
2022-12-31T01:17:09.250Z,100287.50
2022-12-31T01:19:35.923Z,100278.00
2022-12-31T01:22:02.574Z,100282.47
2022-12-31T01:24:29.290Z,100281.63
2022-12-31T01:26:57.956Z,100283.50
2022-12-31T01:29:24.846Z,100280.16
2022-12-31T01:31:51.432Z,100277.63
2022-12-31T01:34:18.108Z,100278.59
2022-12-31T01:36:44.665Z,100284.72
2022-12-31T01:39:12.000Z,100285.66
2022-12-31T01:41:42.237Z,100288.25
2022-12-31T01:44:11.599Z,100290.03
2022-12-31T01:46:42.768Z,100286.69
2022-12-31T01:49:16.873Z,100284.16
2022-12-31T01:51:47.058Z,100285.09
2022-12-31T01:54:16.457Z,100289.47
2022-12-31T01:56:45.582Z,100295.72
2022-12-31T01:59:15.635Z,100287.88
2022-12-31T02:01:42.376Z,100291.53
2022-12-31T02:04:11.997Z,100302.78
2022-12-31T02:06:44.495Z,100304.44
2022-12-31T02:09:11.550Z,100300.25
2022-12-31T02:11:38.229Z,100299.34
2022-12-31T02:14:10.973Z,100290.66
2022-12-31T02:17:00.901Z,100282.78
2022-12-31T02:19:45.992Z,100269.97
2022-12-31T02:22:50.160Z,100275.91
2022-12-31T02:25:38.629Z,100257.75
2022-12-31T02:28:25.527Z,100262.97
2022-12-31T02:31:01.811Z,100264.75
2022-12-31T02:33:58.192Z,100249.00
2022-12-31T02:36:31.961Z,100239.53
2022-12-31T02:38:59.443Z,100239.63
2022-12-31T02:41:44.487Z,100243.09
2022-12-31T02:44:29.496Z,100263.72
2022-12-31T02:47:05.167Z,100263.81
2022-12-31T02:49:43.593Z,100267.22
2022-12-31T02:52:40.967Z,100275.91
2022-12-31T02:55:23.780Z,100285.47
2022-12-31T02:58:22.745Z,100284.63
2022-12-31T03:01:13.503Z,100297.75
2022-12-31T03:03:40.690Z,100303.97
2022-12-31T03:06:09.590Z,100303.16
2022-12-31T03:08:56.224Z,100309.19
2022-12-31T03:11:41.800Z,100311.03
2022-12-31T03:14:08.594Z,100309.38
2022-12-31T03:16:35.597Z,100297.28
2022-12-31T03:19:20.687Z,100302.59
2022-12-31T03:22:06.144Z,100305.19
2022-12-31T03:24:51.105Z,100304.34
2022-12-31T03:27:17.559Z,100299.25
2022-12-31T03:29:44.065Z,100318.38
2022-12-31T03:32:10.571Z,100317.66
2022-12-31T03:34:37.135Z,100316.00
2022-12-31T03:37:03.632Z,100321.19
2022-12-31T03:39:30.141Z,100317.00
2022-12-31T03:41:56.654Z,100318.75
2022-12-31T03:44:23.144Z,100312.81
2022-12-31T03:46:49.621Z,100307.72
2022-12-31T03:49:16.331Z,100301.75
2022-12-31T03:51:42.749Z,100292.25
2022-12-31T03:54:09.354Z,100302.75
2022-12-31T03:56:35.741Z,100297.66
2022-12-31T03:59:02.295Z,100303.78
2022-12-31T04:01:28.980Z,100292.63
2022-12-31T04:03:55.428Z,100295.34
2022-12-31T04:06:21.896Z,100284.94
2022-12-31T04:08:48.349Z,100291.88
2022-12-31T04:11:20.469Z,100278.88
2022-12-31T04:13:47.366Z,100272.09
2022-12-31T04:16:13.906Z,100278.25
2022-12-31T04:18:40.559Z,100275.81
2022-12-31T04:21:07.341Z,100272.38
2022-12-31T04:23:33.853Z,100251.63
2022-12-31T04:26:00.288Z,100271.72
2022-12-31T04:28:26.738Z,100260.47
2022-12-31T04:30:53.375Z,100269.22
2022-12-31T04:33:19.827Z,100277.88
2022-12-31T04:35:46.325Z,100270.13
2022-12-31T04:38:12.751Z,100278.03
2022-12-31T04:40:59.266Z,100277.94
2022-12-31T04:43:25.745Z,100272.94
2022-12-31T04:45:52.317Z,100269.47
2022-12-31T04:48:18.904Z,100290.28
2022-12-31T04:50:46.375Z,100284.25
2022-12-31T04:53:13.095Z,100297.25
2022-12-31T04:55:41.369Z,100291.97
2022-12-31T04:58:07.929Z,100289.47
2022-12-31T05:00:34.514Z,100292.06
2022-12-31T05:03:01.021Z,100287.69
2022-12-31T05:05:27.517Z,100273.03
2022-12-31T05:07:53.975Z,100284.34
2022-12-31T05:10:20.861Z,100288.72
2022-12-31T05:12:47.455Z,100296.44
2022-12-31T05:15:13.877Z,100278.31
2022-12-31T05:17:40.478Z,100285.28
2022-12-31T05:20:07.931Z,100280.06
2022-12-31T05:22:34.679Z,100287.13
2022-12-31T05:25:01.335Z,100279.41
2022-12-31T05:27:31.344Z,100285.44
2022-12-31T05:29:58.267Z,100292.34
2022-12-31T05:32:24.955Z,100285.28
2022-12-31T05:34:51.981Z,100285.28
2022-12-31T05:37:18.483Z,100289.53
2022-12-31T05:39:45.030Z,100293.84
2022-12-31T05:42:11.659Z,100303.28
2022-12-31T05:44:38.140Z,100301.44
2022-12-31T05:47:04.921Z,100291.69
2022-12-31T05:49:31.470Z,100290.75
2022-12-31T05:51:58.154Z,100288.06
2022-12-31T05:54:24.895Z,100282.69
2022-12-31T05:56:51.672Z,100280.94
2022-12-31T05:59:18.227Z,100290.31
2022-12-31T06:01:44.764Z,100287.53
2022-12-31T06:04:12.476Z,100289.00
2022-12-31T06:06:38.945Z,100294.88
2022-12-31T06:09:05.405Z,100293.09
2022-12-31T06:11:31.876Z,100290.41
2022-12-31T06:13:58.521Z,100292.94
2022-12-31T06:16:26.778Z,100294.59
2022-12-31T06:18:53.408Z,100298.78
2022-12-31T06:21:21.277Z,100300.44
2022-12-31T06:23:48.487Z,100297.75
2022-12-31T06:26:15.912Z,100296.81
2022-12-31T06:28:42.720Z,100294.97
2022-12-31T06:31:12.751Z,100291.44
2022-12-31T06:33:39.451Z,100296.53
2022-12-31T06:36:08.418Z,100312.91
2022-12-31T06:38:37.892Z,100319.78
2022-12-31T06:41:05.624Z,100308.34
2022-12-31T06:43:32.185Z,100310.78
2022-12-31T06:46:06.755Z,100317.38
2022-12-31T06:48:33.446Z,100313.72
2022-12-31T06:51:05.440Z,100322.19
2022-12-31T06:53:32.409Z,100320.25
2022-12-31T06:55:59.343Z,100320.06
2022-12-31T06:58:26.219Z,100320.78
2022-12-31T07:01:31.772Z,100315.28
2022-12-31T07:04:23.000Z,100316.59
2022-12-31T07:06:58.126Z,100312.13
2022-12-31T07:09:47.379Z,100308.50
2022-12-31T07:12:52.767Z,100304.78
2022-12-31T07:15:40.964Z,100308.03
2022-12-31T07:18:29.310Z,100305.97
2022-12-31T07:20:56.131Z,100299.72
2022-12-31T07:23:23.005Z,100299.31
2022-12-31T07:26:11.399Z,100300.72
2022-12-31T07:29:12.081Z,100302.28
2022-12-31T07:31:47.626Z,100306.53
2022-12-31T07:34:24.925Z,100304.50
2022-12-31T07:37:13.308Z,100312.00
2022-12-31T07:39:51.947Z,100314.34
2022-12-31T07:42:28.189Z,100318.34
2022-12-31T07:45:10.571Z,100308.44
2022-12-31T07:47:37.315Z,100320.25
2022-12-31T07:50:04.266Z,100312.03
2022-12-31T07:52:31.190Z,100330.16
2022-12-31T07:54:57.719Z,100346.69
2022-12-31T07:57:37.378Z,100346.47
2022-12-31T08:00:11.382Z,100345.63
2022-12-31T08:02:56.248Z,100341.06
2022-12-31T08:05:29.958Z,100317.59
2022-12-31T08:08:08.676Z,100345.25
2022-12-31T08:11:04.900Z,100346.72
2022-12-31T08:13:32.328Z,100337.03
2022-12-31T08:16:00.251Z,100341.38
2022-12-31T08:18:27.311Z,100345.66
2022-12-31T08:21:21.881Z,100343.91
2022-12-31T08:24:06.519Z,100350.91
2022-12-31T08:26:54.767Z,100335.25
2022-12-31T08:29:40.369Z,100337.03
2022-12-31T08:32:20.896Z,100355.38
2022-12-31T08:35:11.925Z,100354.41
2022-12-31T08:37:51.395Z,100380.50
2022-12-31T08:40:28.429Z,100391.81
2022-12-31T08:43:10.307Z,100395.34
2022-12-31T08:45:44.579Z,100404.94
2022-12-31T08:48:26.874Z,100403.16
2022-12-31T08:50:54.501Z,100414.72
2022-12-31T08:53:21.797Z,100420.81
2022-12-31T08:55:52.586Z,100425.16
2022-12-31T08:58:29.590Z,100440.81
2022-12-31T09:00:59.397Z,100437.28
2022-12-31T09:03:40.939Z,100443.25
2022-12-31T09:06:16.400Z,100439.78
2022-12-31T09:08:58.916Z,100445.72
2022-12-31T09:12:03.091Z,100450.78
2022-12-31T09:14:44.769Z,100466.50
2022-12-31T09:17:25.051Z,100450.88
2022-12-31T09:19:51.834Z,100471.66
2022-12-31T09:22:18.523Z,100468.81
2022-12-31T09:24:45.273Z,100462.47
2022-12-31T09:27:46.609Z,100471.78
2022-12-31T09:30:16.263Z,100464.59
2022-12-31T09:33:01.105Z,100458.34
2022-12-31T09:35:54.273Z,100466.81
2022-12-31T09:39:01.061Z,100460.56
2022-12-31T09:41:43.271Z,100460.34
2022-12-31T09:44:46.832Z,100467.91
2022-12-31T09:47:42.437Z,100482.22
2022-12-31T09:50:39.560Z,100476.69
2022-12-31T09:53:34.240Z,100475.66
2022-12-31T09:56:39.919Z,100478.16
2022-12-31T09:59:13.731Z,100459.72
2022-12-31T10:01:50.743Z,100474.41
2022-12-31T10:04:26.702Z,100477.38
2022-12-31T10:07:11.645Z,100482.28
2022-12-31T10:09:59.448Z,100472.56
2022-12-31T10:12:41.479Z,100477.41
2022-12-31T10:15:45.395Z,100478.66
2022-12-31T10:18:23.966Z,100488.03
2022-12-31T10:21:10.724Z,100479.19
2022-12-31T10:23:40.304Z,100457.34
2022-12-31T10:26:30.397Z,100469.16
2022-12-31T10:29:22.648Z,100475.03
2022-12-31T10:32:31.432Z,100482.88
2022-12-31T10:35:11.940Z,100487.81
2022-12-31T10:38:12.810Z,100498.88
2022-12-31T10:41:08.494Z,100482.03
2022-12-31T10:43:53.149Z,100494.59
2022-12-31T10:46:38.628Z,100486.44
2022-12-31T10:49:05.029Z,100491.47
2022-12-31T10:52:10.592Z,100469.19
2022-12-31T10:55:03.598Z,100476.94
2022-12-31T10:57:43.460Z,100487.06
2022-12-31T11:00:20.114Z,100488.94
2022-12-31T11:03:29.596Z,100481.94
2022-12-31T11:06:43.156Z,100481.94
2022-12-31T11:09:37.164Z,100494.19
2022-12-31T11:12:41.862Z,100494.91
2022-12-31T11:15:20.293Z,100512.38
2022-12-31T11:18:05.358Z,100496.88
2022-12-31T11:20:50.083Z,100498.88
2022-12-31T11:23:35.264Z,100499.59
2022-12-31T11:26:15.763Z,100484.97
2022-12-31T11:28:55.777Z,100502.66
2022-12-31T11:31:40.988Z,100488.97
2022-12-31T11:34:38.278Z,100509.22
2022-12-31T11:37:28.663Z,100505.88
2022-12-31T11:40:16.964Z,100525.22
2022-12-31T11:42:55.888Z,100500.75
2022-12-31T11:45:50.536Z,100502.34
2022-12-31T11:48:30.958Z,100499.59
2022-12-31T11:51:26.386Z,100496.78
2022-12-31T11:54:25.080Z,100489.28
2022-12-31T11:57:04.978Z,100500.47
2022-12-31T11:59:31.445Z,100492.50
2022-12-31T12:01:57.774Z,100488.94
2022-12-31T12:04:26.499Z,100483.50
2022-12-31T12:06:53.431Z,100478.06
2022-12-31T12:09:29.220Z,100490.09
2022-12-31T12:12:05.703Z,100483.91
2022-12-31T12:14:41.241Z,100481.09
2022-12-31T12:17:16.875Z,100474.81
2022-12-31T12:19:46.893Z,100465.91
2022-12-31T12:22:26.246Z,100473.56
2022-12-31T12:25:04.607Z,100478.03
2022-12-31T12:27:34.264Z,100473.66
2022-12-31T12:30:23.416Z,100468.50
2022-12-31T12:32:56.605Z,100470.53
2022-12-31T12:35:32.148Z,100475.03
2022-12-31T12:38:09.404Z,100478.47
2022-12-31T12:40:36.953Z,100471.47
2022-12-31T12:43:04.266Z,100459.13
2022-12-31T12:45:47.661Z,100465.69
2022-12-31T12:48:36.945Z,100469.78
2022-12-31T12:51:13.701Z,100469.44
2022-12-31T12:53:51.689Z,100469.44
2022-12-31T12:56:35.239Z,100471.09
2022-12-31T12:59:23.782Z,100479.69
2022-12-31T13:01:59.515Z,100502.28
2022-12-31T13:04:48.266Z,100493.38
2022-12-31T13:07:21.415Z,100480.31
2022-12-31T13:10:04.657Z,100490.03
2022-12-31T13:16:01.016Z,100505.97
2022-12-31T13:19:10.558Z,100507.63
2022-12-31T13:21:49.226Z,100509.50
2022-12-31T13:24:51.587Z,100501.91
2022-12-31T13:28:17.588Z,100486.31
2022-12-31T13:39:02.079Z,100505.03
2022-12-31T13:42:03.643Z,100513.84
2022-12-31T13:45:24.100Z,100499.91
2022-12-31T13:55:57.022Z,100514.84
2022-12-31T14:02:34.297Z,100520.81
2022-12-31T14:09:23.811Z,100518.09
2022-12-31T14:12:33.678Z,100512.97
2022-12-31T14:23:15.493Z,100513.09
2022-12-31T14:26:19.939Z,100501.06
2022-12-31T14:36:10.346Z,100556.84
2022-12-31T14:40:04.312Z,100559.66
2022-12-31T14:46:51.907Z,100544.38
2022-12-31T14:49:56.576Z,100547.13
2022-12-31T14:52:56.911Z,100550.66
2022-12-31T14:59:07.268Z,100563.22
2022-12-31T15:01:50.819Z,100562.16
2022-12-31T15:04:49.682Z,100567.38
2022-12-31T15:07:44.448Z,100564.88
2022-12-31T15:10:59.310Z,100570.94
2022-12-31T15:14:19.027Z,100585.06
2022-12-31T15:17:00.675Z,100565.09
2022-12-31T15:19:52.698Z,100571.25
2022-12-31T15:22:43.041Z,100540.81
2022-12-31T15:25:41.407Z,100555.56
2022-12-31T15:28:28.220Z,100559.00
2022-12-31T15:31:01.129Z,100545.19
2022-12-31T15:33:34.390Z,100553.91
2022-12-31T15:36:13.582Z,100532.03
2022-12-31T15:38:41.819Z,100522.72
2022-12-31T15:41:15.780Z,100518.22
2022-12-31T15:43:50.756Z,100512.91
2022-12-31T15:46:20.393Z,100524.81
2022-12-31T15:49:06.916Z,100545.66
2022-12-31T15:52:01.820Z,100532.97
2022-12-31T15:54:50.606Z,100533.72
2022-12-31T15:57:30.155Z,100524.09
2022-12-31T16:00:04.625Z,100537.88
2022-12-31T16:02:36.390Z,100545.50
2022-12-31T16:05:04.495Z,100539.13
2022-12-31T16:07:32.060Z,100525.97
2022-12-31T16:10:02.531Z,100535.47
2022-12-31T16:12:38.253Z,100534.53
2022-12-31T16:15:20.450Z,100532.84
2022-12-31T16:17:47.087Z,100532.84
2022-12-31T16:20:27.020Z,100536.09
2022-12-31T16:22:57.510Z,100529.81
2022-12-31T16:25:33.726Z,100518.63
2022-12-31T16:28:04.518Z,100502.81
2022-12-31T16:30:36.612Z,100514.25
2022-12-31T16:33:07.453Z,100505.25
2022-12-31T16:35:38.782Z,100514.00
2022-12-31T16:38:08.706Z,100521.13
2022-12-31T16:40:35.861Z,100513.91
2022-12-31T16:43:02.395Z,100511.19
2022-12-31T16:45:33.832Z,100507.84
2022-12-31T16:48:17.275Z,100509.59
2022-12-31T16:50:47.017Z,100507.13
2022-12-31T16:53:18.424Z,100510.66
2022-12-31T16:55:54.425Z,100523.56
2022-12-31T16:58:42.310Z,100521.53
2022-12-31T17:01:11.864Z,100517.38
2022-12-31T17:03:43.795Z,100497.41
2022-12-31T17:06:12.442Z,100500.09
2022-12-31T17:08:44.859Z,100505.25
2022-12-31T17:11:30.476Z,100506.25
2022-12-31T17:14:00.785Z,100520.41
2022-12-31T17:16:27.449Z,100516.13
2022-12-31T17:18:53.981Z,100499.72
2022-12-31T17:21:27.608Z,100515.50
2022-12-31T17:23:57.296Z,100486.81
2022-12-31T17:26:29.912Z,100487.78
2022-12-31T17:28:58.421Z,100484.09
2022-12-31T17:31:29.630Z,100492.06
2022-12-31T17:34:19.583Z,100506.09
2022-12-31T17:36:59.698Z,100495.53
2022-12-31T17:39:27.878Z,100492.06
2022-12-31T17:41:57.421Z,100486.09
2022-12-31T17:44:28.500Z,100484.44
2022-12-31T17:46:55.268Z,100507.88
2022-12-31T17:49:30.980Z,100493.00
2022-12-31T17:51:57.743Z,100509.63
2022-12-31T17:54:24.197Z,100509.63
2022-12-31T17:56:52.320Z,100515.59
2022-12-31T17:59:23.266Z,100509.44
2022-12-31T18:01:49.972Z,100512.97
2022-12-31T18:04:18.541Z,100506.00
2022-12-31T18:06:45.519Z,100518.09
2022-12-31T18:09:12.084Z,100526.69
2022-12-31T18:11:40.397Z,100515.16
2022-12-31T18:14:07.358Z,100500.31
2022-12-31T18:16:34.189Z,100504.72
2022-12-31T18:19:01.203Z,100511.50
2022-12-31T18:21:35.851Z,100505.34
2022-12-31T18:26:30.409Z,100495.81
2022-12-31T18:29:05.855Z,100511.31
2022-12-31T18:31:32.452Z,100507.94
2022-12-31T18:33:59.392Z,100502.09
2022-12-31T18:36:28.838Z,100507.41
2022-12-31T18:38:55.428Z,100513.84
2022-12-31T18:41:26.840Z,100506.81
2022-12-31T18:43:54.175Z,100515.50
2022-12-31T18:46:23.233Z,100520.63
2022-12-31T18:48:49.773Z,100512.88
2022-12-31T18:51:19.124Z,100507.41
2022-12-31T18:53:45.735Z,100504.72
2022-12-31T18:56:15.048Z,100515.25
2022-12-31T18:58:41.577Z,100520.63
2022-12-31T19:01:33.323Z,100520.41
2022-12-31T19:04:02.330Z,100509.84
2022-12-31T19:06:29.405Z,100526.59
2022-12-31T19:08:56.453Z,100527.31
2022-12-31T19:11:23.222Z,100537.56
2022-12-31T19:13:50.190Z,100539.34
2022-12-31T19:16:17.980Z,100533.28
2022-12-31T19:18:45.300Z,100535.16
2022-12-31T19:21:17.412Z,100549.81
2022-12-31T19:23:44.573Z,100532.44
2022-12-31T19:26:16.336Z,100556.81
2022-12-31T19:28:45.262Z,100546.13
2022-12-31T19:31:12.461Z,100535.16
2022-12-31T19:33:39.090Z,100538.81
2022-12-31T19:36:07.363Z,100528.25
2022-12-31T19:38:34.125Z,100521.56
2022-12-31T19:41:01.723Z,100525.31
2022-12-31T19:43:28.160Z,100539.47
2022-12-31T19:45:54.696Z,100527.09
2022-12-31T19:48:28.748Z,100523.66
2022-12-31T19:50:58.697Z,100524.50
2022-12-31T19:53:27.300Z,100541.88
2022-12-31T19:55:54.036Z,100539.34
2022-12-31T19:58:25.323Z,100550.31
2022-12-31T20:00:57.076Z,100570.94
2022-12-31T20:03:28.473Z,100553.25
2022-12-31T20:06:09.498Z,100551.28
2022-12-31T20:08:38.109Z,100549.38
2022-12-31T20:11:15.320Z,100554.50
2022-12-31T20:13:42.386Z,100551.28
2022-12-31T20:16:11.832Z,100558.28
2022-12-31T20:18:39.077Z,100553.16
2022-12-31T20:21:10.852Z,100570.63
2022-12-31T20:23:37.226Z,100557.34
2022-12-31T20:26:03.974Z,100570.63
2022-12-31T20:28:30.504Z,100566.13
2022-12-31T20:30:57.072Z,100565.09
2022-12-31T20:33:23.607Z,100563.63
2022-12-31T20:35:50.087Z,100555.78
2022-12-31T20:38:16.565Z,100553.06
2022-12-31T20:40:46.647Z,100553.88
2022-12-31T20:43:13.442Z,100559.03
2022-12-31T20:45:41.090Z,100547.81
2022-12-31T20:48:07.596Z,100577.34
2022-12-31T20:50:33.992Z,100573.03
2022-12-31T20:53:00.374Z,100580.16
2022-12-31T20:55:27.316Z,100585.38
2022-12-31T20:57:53.750Z,100577.34
2022-12-31T21:00:20.160Z,100566.00
2022-12-31T21:02:53.908Z,100576.47
2022-12-31T21:05:24.380Z,100578.03
2022-12-31T21:07:50.941Z,100577.22
2022-12-31T21:10:17.893Z,100575.22
2022-12-31T21:12:44.390Z,100567.88
2022-12-31T21:15:12.696Z,100587.66
2022-12-31T21:17:39.211Z,100576.47
2022-12-31T21:20:06.345Z,100598.13
2022-12-31T21:22:33.670Z,100595.31
2022-12-31T21:25:01.613Z,100583.06
2022-12-31T21:27:29.583Z,100586.59
2022-12-31T21:32:43.137Z,100600.25
2022-12-31T21:38:00.669Z,100625.56
2022-12-31T21:40:27.785Z,100629.94
2022-12-31T21:42:54.183Z,100634.88
2022-12-31T21:45:20.612Z,100627.13
2022-12-31T21:48:05.764Z,100633.09
2022-12-31T21:50:33.047Z,100616.44
2022-12-31T21:52:59.776Z,100622.63
2022-12-31T21:55:44.886Z,100625.56
2022-12-31T21:58:27.996Z,100626.41
2022-12-31T22:01:14.972Z,100625.75
2022-12-31T22:03:41.885Z,100626.81
2022-12-31T22:06:14.378Z,100623.47
2022-12-31T22:08:43.119Z,100615.63
2022-12-31T22:11:11.237Z,100620.13
2022-12-31T22:13:38.388Z,100619.06
2022-12-31T22:16:06.276Z,100600.66
2022-12-31T22:18:41.232Z,100601.59
2022-12-31T22:21:19.392Z,100604.19
2022-12-31T22:23:49.013Z,100609.44
2022-12-31T22:26:17.744Z,100631.41
2022-12-31T22:28:45.552Z,100633.28
2022-12-31T22:31:20.885Z,100627.97
2022-12-31T22:33:47.562Z,100627.22
2022-12-31T22:36:17.151Z,100639.38
2022-12-31T22:38:43.979Z,100622.97
2022-12-31T22:41:17.034Z,100629.75
2022-12-31T22:43:46.242Z,100625.25
2022-12-31T22:46:18.491Z,100643.34
2022-12-31T22:48:45.279Z,100627.56
2022-12-31T22:51:13.455Z,100638.84
2022-12-31T22:53:41.225Z,100650.16
2022-12-31T22:56:08.282Z,100629.94
2022-12-31T22:58:35.364Z,100646.09
2022-12-31T23:01:05.850Z,100638.34
2022-12-31T23:03:32.980Z,100640.00
2022-12-31T23:05:59.595Z,100641.69
2022-12-31T23:08:26.411Z,100652.16
2022-12-31T23:11:11.488Z,100640.00
2022-12-31T23:14:03.006Z,100638.00
2022-12-31T23:16:48.763Z,100660.75
2022-12-31T23:19:34.737Z,100659.78
2022-12-31T23:22:20.261Z,100671.31
2022-12-31T23:24:46.683Z,100667.94
2022-12-31T23:27:13.331Z,100672.25
2022-12-31T23:29:46.768Z,100677.50
2022-12-31T23:32:16.469Z,100691.28
2022-12-31T23:34:44.645Z,100684.59
2022-12-31T23:37:12.851Z,100686.38
2022-12-31T23:39:39.583Z,100692.00
2022-12-31T23:42:06.171Z,100684.38
2022-12-31T23:44:33.111Z,100690.34
2022-12-31T23:46:59.705Z,100687.81
2022-12-31T23:49:26.403Z,100699.25
2022-12-31T23:51:52.979Z,100703.22
2022-12-31T23:54:19.515Z,100710.13
2022-12-31T23:56:46.055Z,100696.84
2022-12-31T23:59:12.906Z,100710.13
